Time;durP1;ratioP1;P1;durP2;ratioP2;P2;SDS_P1;SDS_P2;PMS_P1;PMS_P2;Temp;Humidity;BMP_temperature;BMP_pressure;BME280_temperature;BME280_humidity;BME280_pressure;Samples;Min_cycle;Max_cycle;Signal;HPM_P1;HPM_P2
2023/12/06 00:00:50;;;;;;;9.47;7.20;;;;;;;;;;5054946;28;20202;-68
2023/12/06 00:03:17;;;;;;;7.63;6.87;;;;;;;;;;5053526;28;20301;-67
2023/12/06 00:05:44;;;;;;;8.13;7.23;;;;;;;;;;5055984;28;20203;-67
2023/12/06 00:08:11;;;;;;;7.57;6.50;;;;;;;;;;5054747;28;20200;-68
2023/12/06 00:10:39;;;;;;;8.53;7.57;;;;;;;;;;5055903;28;20203;-68
2023/12/06 00:13:06;;;;;;;8.47;7.47;;;;;;;;;;5052495;28;20232;-67
2023/12/06 00:15:34;;;;;;;7.90;7.10;;;;;;;;;;5053465;28;20407;-68
2023/12/06 00:18:01;;;;;;;10.20;7.17;;;;;;;;;;5054008;28;20203;-68
2023/12/06 00:20:28;;;;;;;9.60;7.27;;;;;;;;;;5052306;28;20208;-67
2023/12/06 00:22:55;;;;;;;7.63;6.83;;;;;;;;;;5054787;28;20298;-68
2023/12/06 00:25:23;;;;;;;7.77;6.73;;;;;;;;;;5055082;28;20210;-69
2023/12/06 00:27:50;;;;;;;6.80;6.10;;;;;;;;;;5054614;28;20244;-68
2023/12/06 00:30:17;;;;;;;7.30;6.60;;;;;;;;;;5052183;28;21996;-68
2023/12/06 00:32:46;;;;;;;8.57;6.90;;;;;;;;;;5052760;28;20363;-68
2023/12/06 00:35:13;;;;;;;7.50;6.70;;;;;;;;;;5053421;28;20207;-68
2023/12/06 00:37:40;;;;;;;7.90;7.13;;;;;;;;;;5055188;28;20216;-68
2023/12/06 00:40:07;;;;;;;7.77;6.97;;;;;;;;;;5055552;28;20199;-68
2023/12/06 00:42:35;;;;;;;7.90;7.10;;;;;;;;;;5057086;28;20218;-68
2023/12/06 00:45:02;;;;;;;6.67;6.00;;;;;;;;;;5054572;28;20231;-68
2023/12/06 00:47:29;;;;;;;7.50;6.70;;;;;;;;;;5056648;28;20199;-69
2023/12/06 00:49:57;;;;;;;7.10;6.07;;;;;;;;;;5057614;28;20197;-67
2023/12/06 00:52:24;;;;;;;6.87;6.17;;;;;;;;;;5056625;28;20211;-68
2023/12/06 00:54:52;;;;;;;7.57;6.77;;;;;;;;;;5056034;28;20203;-68
2023/12/06 00:57:19;;;;;;;7.67;6.87;;;;;;;;;;5056364;28;20202;-68
2023/12/06 00:59:46;;;;;;;8.10;6.87;;;;;;;;;;5055800;28;20202;-68
2023/12/06 01:02:13;;;;;;;7.17;6.47;;;;;;;;;;5055232;28;20210;-68
2023/12/06 01:04:40;;;;;;;8.53;6.67;;;;;;;;;;5055281;28;20232;-68
2023/12/06 01:07:09;;;;;;;8.83;7.30;;;;;;;;;;5056834;28;20195;-68
2023/12/06 01:09:36;;;;;;;8.27;7.47;;;;;;;;;;5056346;28;20203;-68
2023/12/06 01:12:03;;;;;;;7.60;6.80;;;;;;;;;;5054785;28;20233;-69
2023/12/06 01:14:30;;;;;;;8.77;7.43;;;;;;;;;;5057910;28;20234;-68
2023/12/06 01:16:58;;;;;;;8.63;7.00;;;;;;;;;;5059653;28;20213;-69
2023/12/06 01:19:25;;;;;;;8.17;7.10;;;;;;;;;;5056873;28;20211;-69
2023/12/06 01:21:52;;;;;;;8.23;7.43;;;;;;;;;;5056841;28;20211;-69
2023/12/06 01:24:20;;;;;;;8.33;7.47;;;;;;;;;;5054270;28;20227;-68
2023/12/06 01:26:48;;;;;;;8.97;7.47;;;;;;;;;;5057707;28;20195;-68
2023/12/06 01:29:15;;;;;;;8.40;7.43;;;;;;;;;;5056778;28;20218;-68
2023/12/06 01:31:42;;;;;;;7.77;6.97;;;;;;;;;;5056300;28;20214;-68
2023/12/06 01:34:09;;;;;;;9.17;7.77;;;;;;;;;;5054574;28;20200;-68
2023/12/06 01:36:36;;;;;;;9.80;8.00;;;;;;;;;;5058009;28;20203;-67
2023/12/06 01:39:04;;;;;;;10.03;8.27;;;;;;;;;;5056239;28;20214;-68
2023/12/06 01:41:32;;;;;;;11.37;8.70;;;;;;;;;;5056208;28;20222;-68
2023/12/06 01:43:59;;;;;;;10.93;8.50;;;;;;;;;;5054450;28;20238;-68
2023/12/06 01:46:26;;;;;;;9.10;8.20;;;;;;;;;;5057420;28;20211;-68
2023/12/06 01:48:54;;;;;;;8.97;7.80;;;;;;;;;;5056106;28;20210;-68
2023/12/06 01:51:22;;;;;;;9.57;8.57;;;;;;;;;;5055709;28;20207;-63
2023/12/06 01:53:49;;;;;;;9.43;7.93;;;;;;;;;;5054225;28;20192;-63
2023/12/06 01:56:17;;;;;;;10.53;8.23;;;;;;;;;;5059793;28;20199;-63
2023/12/06 01:58:46;;;;;;;9.77;8.27;;;;;;;;;;5055871;28;20211;-63
2023/12/06 02:01:13;;;;;;;9.60;8.40;;;;;;;;;;5059042;28;20209;-63
2023/12/06 02:03:40;;;;;;;9.20;8.13;;;;;;;;;;5056728;28;20215;-63
2023/12/06 02:06:08;;;;;;;9.87;8.40;;;;;;;;;;5056665;28;20207;-63
2023/12/06 02:08:36;;;;;;;10.57;9.20;;;;;;;;;;5053305;28;20210;-64
2023/12/06 02:11:03;;;;;;;10.37;9.00;;;;;;;;;;5055029;28;20217;-63
2023/12/06 02:13:31;;;;;;;8.50;7.60;;;;;;;;;;5055409;28;20347;-64
2023/12/06 02:15:59;;;;;;;10.67;8.67;;;;;;;;;;5056924;28;20333;-63
2023/12/06 02:18:26;;;;;;;8.70;7.80;;;;;;;;;;5058039;28;20209;-63
2023/12/06 02:20:54;;;;;;;8.67;7.83;;;;;;;;;;5056723;28;20299;-64
2023/12/06 02:23:22;;;;;;;8.33;7.53;;;;;;;;;;5056320;28;20207;-64
2023/12/06 02:25:51;;;;;;;8.20;7.40;;;;;;;;;;5055112;28;20233;-65
2023/12/06 02:28:18;;;;;;;7.47;6.77;;;;;;;;;;5053513;28;21945;-63
2023/12/06 02:30:45;;;;;;;6.80;6.20;;;;;;;;;;5055352;28;20210;-64
2023/12/06 02:33:12;;;;;;;6.50;5.90;;;;;;;;;;5056481;28;20202;-63
2023/12/06 02:35:41;;;;;;;6.33;5.77;;;;;;;;;;5055349;28;20196;-64
2023/12/06 02:38:09;;;;;;;6.63;6.03;;;;;;;;;;5057972;28;20207;-63
2023/12/06 02:40:37;;;;;;;6.17;5.67;;;;;;;;;;5055597;28;20210;-63
2023/12/06 02:43:05;;;;;;;6.63;6.03;;;;;;;;;;5056076;28;20221;-63
2023/12/06 02:45:32;;;;;;;6.87;6.27;;;;;;;;;;5057531;28;20215;-64
2023/12/06 02:48:00;;;;;;;6.73;6.13;;;;;;;;;;5053474;28;20206;-64
2023/12/06 02:50:27;;;;;;;6.50;5.90;;;;;;;;;;5055158;28;20327;-63
2023/12/06 02:52:54;;;;;;;6.40;5.80;;;;;;;;;;5057165;28;20209;-62
2023/12/06 02:55:21;;;;;;;6.53;6.03;;;;;;;;;;5054923;28;20202;-64
2023/12/06 02:57:48;;;;;;;5.90;5.30;;;;;;;;;;5057015;28;20207;-62
2023/12/06 03:00:17;;;;;;;6.60;6.00;;;;;;;;;;5054128;28;20217;-63
2023/12/06 03:02:44;;;;;;;6.20;5.60;;;;;;;;;;5052977;28;20213;-64
2023/12/06 03:05:11;;;;;;;5.97;5.47;;;;;;;;;;5055853;28;20220;-64
2023/12/06 03:07:38;;;;;;;6.07;5.57;;;;;;;;;;5055570;28;20206;-63
2023/12/06 03:10:06;;;;;;;6.33;5.80;;;;;;;;;;5055809;28;20207;-63
2023/12/06 03:12:33;;;;;;;5.97;5.47;;;;;;;;;;5056080;28;20202;-63
2023/12/06 03:15:00;;;;;;;6.50;5.90;;;;;;;;;;5054326;28;20203;-64
2023/12/06 03:17:28;;;;;;;6.50;5.90;;;;;;;;;;5055169;28;20198;-63
2023/12/06 03:19:55;;;;;;;6.80;6.20;;;;;;;;;;5055909;28;20214;-64
2023/12/06 03:22:23;;;;;;;6.47;5.67;;;;;;;;;;5055182;28;20214;-64
2023/12/06 03:24:50;;;;;;;6.77;6.17;;;;;;;;;;5057008;28;20235;-63
2023/12/06 03:27:17;;;;;;;6.87;6.27;;;;;;;;;;5054183;28;20213;-63
2023/12/06 03:29:44;;;;;;;7.10;6.50;;;;;;;;;;5057212;28;20270;-63
2023/12/06 03:32:11;;;;;;;7.27;6.57;;;;;;;;;;5053845;28;20209;-64
2023/12/06 03:34:39;;;;;;;7.20;6.50;;;;;;;;;;5054074;28;20203;-63
2023/12/06 03:37:07;;;;;;;7.40;6.50;;;;;;;;;;5053943;28;20211;-63
2023/12/06 03:39:34;;;;;;;8.23;7.43;;;;;;;;;;5055470;28;20214;-63
2023/12/06 03:42:01;;;;;;;7.83;7.03;;;;;;;;;;5056346;28;20198;-63
2023/12/06 03:44:28;;;;;;;8.00;7.23;;;;;;;;;;5053783;28;20211;-63
2023/12/06 03:46:55;;;;;;;8.10;7.30;;;;;;;;;;5053925;28;20210;-63
2023/12/06 03:49:22;;;;;;;8.10;7.30;;;;;;;;;;5053775;28;20230;-63
2023/12/06 03:51:51;;;;;;;8.63;7.73;;;;;;;;;;5054907;28;20203;-64
2023/12/06 03:54:18;;;;;;;8.43;7.63;;;;;;;;;;5054219;28;20208;-63
2023/12/06 03:56:45;;;;;;;8.03;7.33;;;;;;;;;;5054021;28;20207;-64
2023/12/06 03:59:12;;;;;;;8.43;7.63;;;;;;;;;;5053383;28;20332;-64
2023/12/06 04:01:44;;;;;;;9.30;8.43;;;;;;;;;;5057207;28;20210;-63
2023/12/06 04:04:12;;;;;;;8.27;7.47;;;;;;;;;;5055619;28;20203;-63
2023/12/06 04:06:39;;;;;;;9.10;8.20;;;;;;;;;;5054226;28;20573;-63
2023/12/06 04:09:08;;;;;;;9.30;8.40;;;;;;;;;;5052665;28;20505;-63
2023/12/06 04:11:35;;;;;;;9.53;8.50;;;;;;;;;;5054947;28;20203;-63
2023/12/06 04:14:02;;;;;;;9.57;8.67;;;;;;;;;;5058478;28;20261;-64
2023/12/06 04:16:29;;;;;;;9.67;8.47;;;;;;;;;;5061859;28;20193;-62
2023/12/06 04:18:56;;;;;;;8.90;8.10;;;;;;;;;;5062303;28;20210;-64
2023/12/06 04:21:23;;;;;;;11.13;9.80;;;;;;;;;;5057469;28;20211;-67
2023/12/06 04:23:50;;;;;;;10.23;9.23;;;;;;;;;;5057089;28;20218;-67
2023/12/06 04:26:19;;;;;;;9.57;8.67;;;;;;;;;;5057420;28;20247;-67
2023/12/06 04:28:46;;;;;;;9.67;8.67;;;;;;;;;;5057126;28;20207;-68
2023/12/06 04:31:13;;;;;;;11.23;10.13;;;;;;;;;;5057794;28;20214;-67
2023/12/06 04:33:41;;;;;;;10.90;9.87;;;;;;;;;;5057131;28;20195;-68
2023/12/06 04:36:08;;;;;;;11.03;9.93;;;;;;;;;;5056325;28;20490;-67
2023/12/06 04:38:35;;;;;;;11.70;9.63;;;;;;;;;;5056080;28;20199;-68
2023/12/06 04:41:02;;;;;;;10.93;9.83;;;;;;;;;;5059423;28;20203;-68
2023/12/06 04:43:31;;;;;;;12.70;10.30;;;;;;;;;;5056824;28;20203;-68
2023/12/06 04:45:58;;;;;;;10.77;9.67;;;;;;;;;;5058495;28;20230;-68
2023/12/06 04:48:25;;;;;;;11.53;10.33;;;;;;;;;;5056831;28;20210;-67
2023/12/06 04:50:52;;;;;;;11.93;10.23;;;;;;;;;;5056702;28;20320;-67
2023/12/06 04:53:19;;;;;;;11.47;10.37;;;;;;;;;;5056364;28;20203;-67
2023/12/06 04:55:46;;;;;;;12.23;10.83;;;;;;;;;;5056555;28;20206;-68
2023/12/06 04:58:13;;;;;;;11.00;10.00;;;;;;;;;;5054394;28;20213;-67
2023/12/06 05:00:43;;;;;;;11.63;10.53;;;;;;;;;;5054779;28;21939;-68
2023/12/06 05:03:11;;;;;;;11.03;9.97;;;;;;;;;;5053988;28;20264;-67
2023/12/06 05:05:38;;;;;;;11.80;10.60;;;;;;;;;;5054475;28;20223;-68
2023/12/06 05:08:05;;;;;;;11.70;10.50;;;;;;;;;;5052739;28;20199;-68
2023/12/06 05:10:32;;;;;;;10.77;9.70;;;;;;;;;;5055327;28;20214;-68
2023/12/06 05:12:59;;;;;;;11.10;10.00;;;;;;;;;;5056329;28;20235;-68
2023/12/06 05:15:27;;;;;;;9.83;8.90;;;;;;;;;;5056379;28;20199;-68
2023/12/06 05:17:56;;;;;;;9.87;8.90;;;;;;;;;;5058872;28;20211;-68
2023/12/06 05:20:23;;;;;;;9.33;8.33;;;;;;;;;;5055174;28;20229;-67
2023/12/06 05:22:51;;;;;;;8.90;8.00;;;;;;;;;;5054264;28;20203;-68
2023/12/06 05:25:19;;;;;;;9.70;8.17;;;;;;;;;;5056406;28;20229;-68
2023/12/06 05:27:46;;;;;;;9.13;8.23;;;;;;;;;;5055193;28;20214;-66
2023/12/06 05:30:14;;;;;;;9.23;8.33;;;;;;;;;;5056490;28;20194;-69
2023/12/06 05:32:41;;;;;;;8.70;7.90;;;;;;;;;;5052779;28;20233;-68
2023/12/06 05:35:10;;;;;;;8.53;7.60;;;;;;;;;;5053454;28;20519;-68
2023/12/06 05:37:37;;;;;;;9.03;8.17;;;;;;;;;;5055937;28;20207;-68
2023/12/06 05:40:06;;;;;;;8.87;7.97;;;;;;;;;;5054597;28;20203;-67
2023/12/06 05:42:33;;;;;;;8.70;7.90;;;;;;;;;;5055315;28;20292;-68
2023/12/06 05:45:00;;;;;;;8.33;7.53;;;;;;;;;;5053123;28;20210;-68
2023/12/06 05:47:27;;;;;;;8.87;8.07;;;;;;;;;;5053334;28;20204;-69
2023/12/06 05:49:54;;;;;;;8.27;7.33;;;;;;;;;;5055907;28;20199;-67
2023/12/06 05:52:23;;;;;;;8.00;7.20;;;;;;;;;;5052467;28;22111;-67
2023/12/06 05:54:51;;;;;;;7.40;6.70;;;;;;;;;;5053029;28;20293;-68
2023/12/06 05:57:18;;;;;;;7.53;6.83;;;;;;;;;;5054416;28;20292;-68
2023/12/06 05:59:45;;;;;;;7.43;6.73;;;;;;;;;;5052277;28;20206;-68
2023/12/06 06:02:12;;;;;;;7.13;6.43;;;;;;;;;;5057731;28;20211;-68
2023/12/06 06:04:39;;;;;;;7.67;6.97;;;;;;;;;;5055311;28;20206;-68
2023/12/06 06:07:06;;;;;;;7.07;6.37;;;;;;;;;;5055189;28;20234;-66
2023/12/06 06:09:35;;;;;;;6.47;5.93;;;;;;;;;;5053717;28;20231;-68
2023/12/06 06:12:03;;;;;;;8.03;6.57;;;;;;;;;;5051521;28;20280;-67
2023/12/06 06:14:31;;;;;;;6.80;6.10;;;;;;;;;;5054451;28;20244;-68
2023/12/06 06:16:58;;;;;;;6.43;5.83;;;;;;;;;;5052928;28;20198;-68
2023/12/06 06:19:25;;;;;;;6.97;6.30;;;;;;;;;;5052749;28;20207;-67
2023/12/06 06:21:52;;;;;;;7.00;6.30;;;;;;;;;;5050472;28;20211;-68
2023/12/06 06:24:19;;;;;;;7.73;6.93;;;;;;;;;;5051473;28;20208;-68
2023/12/06 06:26:48;;;;;;;6.87;6.27;;;;;;;;;;5056661;28;20229;-68
2023/12/06 06:29:15;;;;;;;7.13;6.23;;;;;;;;;;5055323;28;20206;-68
2023/12/06 06:31:42;;;;;;;6.60;6.00;;;;;;;;;;5055457;28;20203;-68
2023/12/06 06:34:09;;;;;;;6.77;6.17;;;;;;;;;;5055138;28;20211;-68
2023/12/06 06:36:37;;;;;;;6.20;5.67;;;;;;;;;;5054069;28;20206;-67
2023/12/06 06:39:04;;;;;;;6.43;5.83;;;;;;;;;;5054867;28;20300;-68
2023/12/06 06:41:31;;;;;;;6.50;5.90;;;;;;;;;;5052825;28;20207;-64
2023/12/06 06:44:00;;;;;;;6.37;5.77;;;;;;;;;;5055138;28;20213;-63
2023/12/06 06:46:27;;;;;;;6.63;6.03;;;;;;;;;;5054004;28;20272;-64
2023/12/06 06:48:54;;;;;;;6.73;6.13;;;;;;;;;;5058057;28;20205;-63
2023/12/06 06:51:21;;;;;;;7.00;6.30;;;;;;;;;;5054376;28;20238;-63
2023/12/06 06:53:49;;;;;;;6.37;5.40;;;;;;;;;;5054338;28;20203;-64
2023/12/06 06:56:17;;;;;;;7.13;6.07;;;;;;;;;;5055245;28;20213;-63
2023/12/06 06:58:44;;;;;;;5.77;5.23;;;;;;;;;;5054144;28;20213;-64
2023/12/06 07:01:13;;;;;;;5.80;5.20;;;;;;;;;;5055409;28;20218;-63
2023/12/06 07:03:40;;;;;;;6.17;5.57;;;;;;;;;;5051752;28;20213;-63
2023/12/06 07:06:07;;;;;;;6.00;5.40;;;;;;;;;;5054973;28;20218;-63
2023/12/06 07:08:35;;;;;;;7.00;6.40;;;;;;;;;;5054251;28;20210;-63
2023/12/06 07:11:04;;;;;;;6.87;6.17;;;;;;;;;;5058487;28;20206;-63
2023/12/06 07:13:31;;;;;;;6.97;6.27;;;;;;;;;;5054632;28;20346;-63
2023/12/06 07:15:59;;;;;;;7.37;6.67;;;;;;;;;;5056673;28;20209;-64
2023/12/06 07:18:28;;;;;;;6.73;6.13;;;;;;;;;;5054910;28;20307;-64
2023/12/06 07:20:55;;;;;;;7.13;6.43;;;;;;;;;;5053998;28;20211;-63
2023/12/06 07:23:22;;;;;;;6.40;5.80;;;;;;;;;;5052526;28;20203;-62
2023/12/06 07:25:49;;;;;;;6.50;5.90;;;;;;;;;;5061721;28;20222;-62
2023/12/06 07:28:16;;;;;;;6.27;5.67;;;;;;;;;;5052472;28;20207;-63
2023/12/06 07:30:43;;;;;;;6.47;5.97;;;;;;;;;;5053471;28;20203;-64
2023/12/06 07:33:11;;;;;;;6.10;5.50;;;;;;;;;;5055643;28;20207;-64
2023/12/06 07:35:40;;;;;;;7.00;6.33;;;;;;;;;;5054005;28;20260;-63
2023/12/06 07:38:09;;;;;;;6.60;6.00;;;;;;;;;;5054446;28;20229;-63
2023/12/06 07:40:36;;;;;;;6.17;5.60;;;;;;;;;;5054308;28;20203;-64
2023/12/06 07:43:03;;;;;;;7.10;6.40;;;;;;;;;;5056888;28;20265;-64
2023/12/06 07:45:31;;;;;;;5.80;5.30;;;;;;;;;;5055027;28;20213;-64
2023/12/06 07:47:57;;;;;;;6.90;5.40;;;;;;;;;;5055325;28;20209;-65
2023/12/06 07:50:25;;;;;;;5.87;5.37;;;;;;;;;;5059073;28;20194;-69
2023/12/06 07:52:53;;;;;;;5.93;5.33;;;;;;;;;;5058056;28;20211;-68
2023/12/06 07:55:22;;;;;;;6.00;5.40;;;;;;;;;;5057646;28;20198;-68
2023/12/06 07:57:49;;;;;;;5.87;5.37;;;;;;;;;;5058428;28;20199;-68
2023/12/06 08:00:18;;;;;;;6.20;5.60;;;;;;;;;;5055122;28;20210;-68
2023/12/06 08:02:45;;;;;;;5.57;5.07;;;;;;;;;;5056998;28;20211;-68
2023/12/06 08:05:13;;;;;;;6.20;5.60;;;;;;;;;;5055988;28;20225;-68
2023/12/06 08:07:40;;;;;;;7.97;6.30;;;;;;;;;;5054969;28;20230;-68
2023/12/06 08:10:12;;;;;;;6.53;5.93;;;;;;;;;;5056790;28;20207;-67
2023/12/06 08:12:39;;;;;;;6.77;6.07;;;;;;;;;;5061819;28;20225;-68
2023/12/06 08:15:07;;;;;;;7.97;7.03;;;;;;;;;;5057635;28;20216;-68
2023/12/06 08:17:34;;;;;;;7.97;7.17;;;;;;;;;;5059779;28;20206;-68
2023/12/06 08:20:01;;;;;;;7.53;6.83;;;;;;;;;;5058324;28;20199;-68
2023/12/06 08:22:28;;;;;;;7.40;6.70;;;;;;;;;;5057562;28;20210;-68
2023/12/06 08:24:57;;;;;;;7.07;6.40;;;;;;;;;;5058331;28;20205;-68
2023/12/06 08:27:28;;;;;;;6.90;6.20;;;;;;;;;;5056142;28;20299;-68
2023/12/06 08:29:55;;;;;;;7.37;6.67;;;;;;;;;;5056014;28;20203;-68
2023/12/06 08:32:22;;;;;;;8.00;7.20;;;;;;;;;;5055552;28;23002;-68
2023/12/06 08:34:50;;;;;;;6.93;6.23;;;;;;;;;;5058292;28;20202;-68
2023/12/06 08:37:17;;;;;;;7.93;6.43;;;;;;;;;;5058650;28;20195;-68
2023/12/06 08:39:44;;;;;;;8.20;7.20;;;;;;;;;;5056694;28;20211;-67
2023/12/06 08:42:12;;;;;;;7.57;6.87;;;;;;;;;;5055552;28;20206;-67
2023/12/06 08:44:41;;;;;;;8.50;7.67;;;;;;;;;;5055861;28;20211;-67
2023/12/06 08:47:08;;;;;;;8.33;7.53;;;;;;;;;;5056765;28;20211;-68
2023/12/06 08:49:36;;;;;;;8.53;7.70;;;;;;;;;;5056294;28;20207;-67
2023/12/06 08:52:03;;;;;;;10.77;8.90;;;;;;;;;;5056450;28;20202;-67
2023/12/06 08:54:31;;;;;;;9.37;8.47;;;;;;;;;;5056990;28;20389;-67
2023/12/06 08:56:58;;;;;;;8.10;7.30;;;;;;;;;;5054949;28;20206;-67
2023/12/06 08:59:25;;;;;;;9.20;8.30;;;;;;;;;;5053718;28;20198;-68
2023/12/06 09:01:53;;;;;;;9.57;8.60;;;;;;;;;;5055582;28;20207;-67
2023/12/06 09:04:20;;;;;;;10.13;9.03;;;;;;;;;;5055478;28;20211;-68
2023/12/06 09:06:48;;;;;;;10.80;8.23;;;;;;;;;;5057001;28;20227;-67
2023/12/06 09:09:17;;;;;;;10.83;9.73;;;;;;;;;;5055118;28;20202;-68
2023/12/06 09:11:44;;;;;;;11.70;10.20;;;;;;;;;;5054711;28;20231;-67
2023/12/06 09:14:11;;;;;;;12.43;10.30;;;;;;;;;;5058436;28;20239;-68
2023/12/06 09:16:39;;;;;;;11.83;10.43;;;;;;;;;;5058707;28;20205;-68
2023/12/06 09:19:08;;;;;;;13.17;10.27;;;;;;;;;;5056934;28;20210;-68
2023/12/06 09:21:40;;;;;;;13.20;10.47;;;;;;;;;;5055255;28;20261;-68
2023/12/06 09:24:09;;;;;;;12.03;9.57;;;;;;;;;;5056209;28;20210;-67
2023/12/06 09:26:37;;;;;;;13.93;10.37;;;;;;;;;;5058291;28;20237;-67
2023/12/06 09:29:05;;;;;;;12.87;10.87;;;;;;;;;;5056147;28;20203;-68
2023/12/06 09:31:32;;;;;;;15.17;11.70;;;;;;;;;;5054540;28;21993;-68
2023/12/06 09:33:59;;;;;;;14.63;11.73;;;;;;;;;;5055118;28;20207;-68
2023/12/06 09:36:28;;;;;;;14.77;11.37;;;;;;;;;;5056332;28;20217;-67
2023/12/06 09:38:56;;;;;;;14.07;11.33;;;;;;;;;;5056169;28;20236;-68
2023/12/06 09:41:25;;;;;;;15.67;11.90;;;;;;;;;;5053671;28;20372;-68
2023/12/06 09:43:52;;;;;;;14.43;11.97;;;;;;;;;;5055422;28;20464;-68
2023/12/06 09:46:19;;;;;;;13.23;11.33;;;;;;;;;;5055855;28;20207;-68
2023/12/06 09:48:48;;;;;;;14.67;11.20;;;;;;;;;;5054773;28;20195;-68
2023/12/06 09:51:16;;;;;;;12.93;10.43;;;;;;;;;;5053681;28;20199;-69
2023/12/06 09:53:44;;;;;;;16.50;13.80;;;;;;;;;;5054303;28;20218;-67
2023/12/06 09:56:12;;;;;;;16.53;13.30;;;;;;;;;;5056880;28;20199;-68
2023/12/06 09:58:39;;;;;;;17.73;13.30;;;;;;;;;;5055093;28;20209;-69
2023/12/06 10:01:06;;;;;;;15.27;12.40;;;;;;;;;;5055115;28;20229;-67
2023/12/06 10:03:33;;;;;;;17.13;13.00;;;;;;;;;;5054483;28;20202;-69
2023/12/06 10:06:03;;;;;;;14.87;13.20;;;;;;;;;;5054925;28;20199;-68
2023/12/06 10:08:30;;;;;;;14.93;12.77;;;;;;;;;;5055738;28;20229;-67
2023/12/06 10:11:02;;;;;;;13.33;11.67;;;;;;;;;;5059650;28;20205;-69
2023/12/06 10:13:34;;;;;;;14.13;11.93;;;;;;;;;;5056405;28;20239;-67
2023/12/06 10:16:01;;;;;;;12.70;11.30;;;;;;;;;;5055583;28;20206;-69
2023/12/06 10:18:28;;;;;;;13.73;12.27;;;;;;;;;;5055498;28;20280;-69
2023/12/06 10:20:56;;;;;;;15.27;12.43;;;;;;;;;;5053999;28;20740;-67
2023/12/06 10:23:23;;;;;;;16.33;12.50;;;;;;;;;;5053965;28;20199;-68
2023/12/06 10:25:50;;;;;;;13.23;11.83;;;;;;;;;;5056310;28;20207;-68
2023/12/06 10:28:20;;;;;;;15.77;11.50;;;;;;;;;;5053173;28;20337;-67
2023/12/06 10:30:47;;;;;;;12.03;10.77;;;;;;;;;;5054963;28;20203;-67
2023/12/06 10:33:16;;;;;;;12.87;11.53;;;;;;;;;;5055772;28;20211;-68
2023/12/06 10:35:44;;;;;;;14.43;12.13;;;;;;;;;;5055544;28;20203;-68
2023/12/06 10:38:11;;;;;;;12.33;10.70;;;;;;;;;;5057571;28;20204;-69
2023/12/06 10:40:39;;;;;;;11.50;10.30;;;;;;;;;;5054324;28;20237;-67
2023/12/06 10:43:08;;;;;;;11.27;10.07;;;;;;;;;;5052887;28;20241;-67
2023/12/06 10:45:37;;;;;;;11.50;10.17;;;;;;;;;;5054408;28;20468;-68
2023/12/06 10:48:05;;;;;;;10.47;8.67;;;;;;;;;;5053671;28;20240;-68
2023/12/06 10:50:34;;;;;;;9.80;8.80;;;;;;;;;;5054023;28;20207;-68
2023/12/06 10:53:01;;;;;;;9.60;8.60;;;;;;;;;;5053556;28;20251;-68
2023/12/06 10:55:31;;;;;;;9.17;8.23;;;;;;;;;;5056696;28;20202;-67
2023/12/06 10:57:59;;;;;;;9.10;8.20;;;;;;;;;;5053563;28;20211;-68
2023/12/06 11:00:28;;;;;;;9.10;8.13;;;;;;;;;;5053890;28;20822;-68
2023/12/06 11:02:56;;;;;;;8.47;7.67;;;;;;;;;;5056201;28;20207;-68
2023/12/06 11:05:25;;;;;;;9.20;8.30;;;;;;;;;;5054990;28;20205;-68
2023/12/06 11:08:13;;;;;;;8.00;7.20;;;;;;;;;;5053021;28;20332;-68
2023/12/06 11:10:46;;;;;;;9.73;7.97;;;;;;;;;;5051314;28;20781;-68
2023/12/06 11:13:20;;;;;;;9.03;8.13;;;;;;;;;;5057728;28;20292;-67
2023/12/06 11:16:00;;;;;;;8.47;7.57;;;;;;;;;;5053582;28;20207;-67
2023/12/06 11:18:33;;;;;;;8.23;7.40;;;;;;;;;;5055959;28;20769;-68
2023/12/06 11:21:00;;;;;;;8.60;7.60;;;;;;;;;;5053814;28;20203;-64
2023/12/06 11:23:28;;;;;;;8.67;7.67;;;;;;;;;;5055517;28;20370;-62
2023/12/06 11:25:56;;;;;;;8.43;7.63;;;;;;;;;;5054004;28;20227;-63
2023/12/06 11:28:23;;;;;;;10.30;8.43;;;;;;;;;;5054707;28;20228;-63
2023/12/06 11:30:51;;;;;;;8.30;7.50;;;;;;;;;;5052286;28;20209;-63
2023/12/06 11:33:18;;;;;;;8.10;6.90;;;;;;;;;;5053291;28;20210;-63
2023/12/06 11:35:51;;;;;;;7.10;6.40;;;;;;;;;;5053792;28;20211;-63
2023/12/06 11:38:18;;;;;;;8.00;7.20;;;;;;;;;;5055316;28;20194;-64
2023/12/06 11:40:50;;;;;;;7.30;6.50;;;;;;;;;;5054136;28;22342;-63
2023/12/06 11:43:19;;;;;;;7.27;6.57;;;;;;;;;;5051387;28;20203;-64
2023/12/06 11:45:48;;;;;;;7.20;6.47;;;;;;;;;;5054657;28;20206;-63
2023/12/06 11:48:15;;;;;;;7.63;6.87;;;;;;;;;;5053373;28;20225;-63
2023/12/06 11:50:42;;;;;;;6.30;5.70;;;;;;;;;;5054844;28;20207;-64
2023/12/06 11:53:12;;;;;;;7.17;5.60;;;;;;;;;;5051520;28;20211;-62
2023/12/06 11:55:39;;;;;;;6.97;6.27;;;;;;;;;;5056048;28;20210;-64
2023/12/06 11:58:08;;;;;;;7.47;6.53;;;;;;;;;;5058299;28;20207;-63
2023/12/06 12:00:36;;;;;;;6.63;6.03;;;;;;;;;;5054721;28;20207;-63
2023/12/06 12:03:04;;;;;;;6.53;5.90;;;;;;;;;;5052670;28;20209;-63
2023/12/06 12:05:32;;;;;;;7.63;6.00;;;;;;;;;;5053273;28;20207;-63
2023/12/06 12:08:01;;;;;;;6.37;5.77;;;;;;;;;;5054767;28;20219;-63
2023/12/06 12:10:30;;;;;;;8.00;5.47;;;;;;;;;;5055369;28;20262;-64
2023/12/06 12:12:58;;;;;;;6.37;5.73;;;;;;;;;;5055579;28;20637;-63
2023/12/06 12:15:26;;;;;;;7.90;6.03;;;;;;;;;;5057384;28;20219;-63
2023/12/06 12:17:53;;;;;;;7.10;6.40;;;;;;;;;;5055743;28;20222;-63
2023/12/06 12:20:20;;;;;;;8.13;6.10;;;;;;;;;;5054686;28;20210;-64
2023/12/06 12:22:48;;;;;;;9.67;6.00;;;;;;;;;;5052797;28;20206;-63
2023/12/06 12:25:15;;;;;;;7.73;6.30;;;;;;;;;;5051771;28;20214;-63
2023/12/06 12:27:45;;;;;;;8.00;6.40;;;;;;;;;;5053989;28;20257;-63
2023/12/06 12:30:13;;;;;;;6.53;5.80;;;;;;;;;;5054798;28;20207;-64
2023/12/06 12:32:41;;;;;;;7.77;6.13;;;;;;;;;;5052357;28;20214;-63
2023/12/06 12:35:09;;;;;;;6.47;5.87;;;;;;;;;;5056116;28;20206;-63
2023/12/06 12:37:36;;;;;;;6.67;5.43;;;;;;;;;;5057980;28;20260;-64
2023/12/06 12:40:04;;;;;;;6.37;5.60;;;;;;;;;;5056621;28;20214;-63
2023/12/06 12:42:34;;;;;;;7.03;6.07;;;;;;;;;;5059473;28;20240;-63
2023/12/06 12:45:03;;;;;;;9.23;5.93;;;;;;;;;;5058756;28;20222;-64
2023/12/06 12:47:30;;;;;;;8.53;6.10;;;;;;;;;;5056840;28;20216;-63
2023/12/06 12:49:58;;;;;;;6.20;5.43;;;;;;;;;;5057907;28;20208;-63
2023/12/06 12:52:25;;;;;;;8.83;6.23;;;;;;;;;;5056698;28;20210;-63
2023/12/06 12:54:52;;;;;;;5.97;5.37;;;;;;;;;;5056318;28;20239;-63
2023/12/06 12:57:19;;;;;;;6.60;5.63;;;;;;;;;;5058354;28;20214;-63
2023/12/06 12:59:46;;;;;;;7.00;6.07;;;;;;;;;;5056899;28;20204;-63
2023/12/06 13:02:15;;;;;;;7.20;5.43;;;;;;;;;;5056863;28;20345;-64
2023/12/06 13:04:42;;;;;;;5.47;4.93;;;;;;;;;;5053494;28;20206;-64
2023/12/06 13:07:09;;;;;;;6.67;5.47;;;;;;;;;;5048960;28;20202;-64
2023/12/06 13:09:37;;;;;;;5.50;5.00;;;;;;;;;;5058164;28;20289;-65
2023/12/06 13:12:05;;;;;;;8.27;6.03;;;;;;;;;;5057809;28;20207;-62
2023/12/06 13:14:32;;;;;;;6.40;5.40;;;;;;;;;;5053985;28;20315;-63
2023/12/06 13:16:59;;;;;;;6.00;5.20;;;;;;;;;;5052634;28;20208;-63
2023/12/06 13:19:27;;;;;;;6.17;5.20;;;;;;;;;;5055165;28;20230;-65
2023/12/06 13:21:55;;;;;;;7.00;5.57;;;;;;;;;;5055774;28;20213;-63
2023/12/06 13:24:22;;;;;;;6.37;4.53;;;;;;;;;;5051710;28;20200;-63
2023/12/06 13:26:49;;;;;;;4.97;4.47;;;;;;;;;;5056436;28;20206;-64
2023/12/06 13:29:16;;;;;;;6.50;4.70;;;;;;;;;;5055551;28;20237;-63
2023/12/06 13:31:43;;;;;;;5.57;4.50;;;;;;;;;;5057695;28;20207;-67
2023/12/06 13:34:10;;;;;;;5.03;4.53;;;;;;;;;;5051119;28;20207;-67
2023/12/06 13:36:39;;;;;;;5.30;4.50;;;;;;;;;;5051900;28;20202;-67
2023/12/06 13:39:07;;;;;;;7.20;5.03;;;;;;;;;;5054746;28;20210;-67
2023/12/06 13:41:34;;;;;;;7.47;5.10;;;;;;;;;;5054956;28;20207;-68
2023/12/06 13:44:02;;;;;;;5.97;5.37;;;;;;;;;;5054584;28;21005;-67
2023/12/06 13:46:29;;;;;;;5.53;4.53;;;;;;;;;;5053781;28;20203;-67
2023/12/06 13:48:56;;;;;;;5.23;4.73;;;;;;;;;;5054280;28;20227;-67
2023/12/06 13:51:23;;;;;;;6.37;4.77;;;;;;;;;;5056129;28;20817;-67
2023/12/06 13:53:52;;;;;;;5.73;4.33;;;;;;;;;;5055411;28;20203;-67
2023/12/06 13:56:21;;;;;;;6.63;5.20;;;;;;;;;;5049281;28;20207;-67
2023/12/06 13:58:48;;;;;;;7.93;4.80;;;;;;;;;;5050944;28;20205;-67
2023/12/06 14:01:15;;;;;;;6.20;4.93;;;;;;;;;;5052952;28;20213;-67
2023/12/06 14:03:43;;;;;;;5.57;4.97;;;;;;;;;;5052678;28;20214;-67
2023/12/06 14:06:10;;;;;;;6.53;5.00;;;;;;;;;;5056398;28;20270;-67
2023/12/06 14:08:37;;;;;;;7.00;5.23;;;;;;;;;;5054976;28;20222;-67
2023/12/06 14:11:06;;;;;;;6.20;5.00;;;;;;;;;;5058737;28;20213;-67
2023/12/06 14:13:33;;;;;;;6.73;5.50;;;;;;;;;;5053146;28;20238;-67
2023/12/06 14:16:00;;;;;;;7.47;5.23;;;;;;;;;;5057001;28;20203;-67
2023/12/06 14:18:28;;;;;;;5.93;5.33;;;;;;;;;;5054148;28;20195;-68
2023/12/06 14:20:55;;;;;;;10.47;5.33;;;;;;;;;;5053224;28;20297;-66
2023/12/06 14:23:22;;;;;;;7.00;5.60;;;;;;;;;;5053957;28;20232;-67
2023/12/06 14:25:49;;;;;;;6.57;5.10;;;;;;;;;;5055994;28;20207;-67
2023/12/06 14:28:18;;;;;;;9.27;5.77;;;;;;;;;;5052267;28;20229;-67
2023/12/06 14:30:45;;;;;;;6.93;4.90;;;;;;;;;;5054391;28;20214;-66
2023/12/06 14:33:13;;;;;;;5.97;5.10;;;;;;;;;;5052912;28;20233;-67
2023/12/06 14:35:40;;;;;;;6.83;5.43;;;;;;;;;;5055158;28;20202;-67
2023/12/06 14:38:07;;;;;;;7.80;5.13;;;;;;;;;;5055123;28;20207;-67
2023/12/06 14:40:35;;;;;;;6.60;5.20;;;;;;;;;;5056298;28;20368;-67